Time;durP1;ratioP1;P1;durP2;ratioP2;P2;SDS_P1;SDS_P2;PMS_P1;PMS_P2;Temp;Humidity;BMP_temperature;BMP_pressure;BME280_temperature;BME280_humidity;BME280_pressure;Samples;Min_cycle;Max_cycle;Signal;HPM_P1;HPM_P2
2022/02/13 00:00:31;;;;;;;55.90;22.20;;;;;;;-2.41;71.46;101680.69;1657743;86;25618;-77
2022/02/13 00:02:59;;;;;;;55.90;24.07;;;;;;;-2.40;71.41;101683.14;1657999;86;25575;-76
2022/02/13 00:05:25;;;;;;;50.70;22.80;;;;;;;-2.42;71.38;101682.48;1658392;86;27460;-76
2022/02/13 00:07:53;;;;;;;48.52;18.77;;;;;;;-2.42;71.38;101675.86;1658989;86;25365;-78
2022/02/13 00:10:26;;;;;;;48.98;18.80;;;;;;;-2.43;71.37;101668.94;1658924;86;25694;-80
2022/02/13 00:12:56;;;;;;;46.48;21.25;;;;;;;-2.41;71.40;101675.38;1657395;86;25666;-80
2022/02/13 00:15:23;;;;;;;49.15;20.25;;;;;;;-2.40;71.27;101671.22;1658935;86;25270;-80
2022/02/13 00:17:49;;;;;;;45.08;20.75;;;;;;;-2.42;71.21;101673.73;1659190;86;27233;-80
2022/02/13 00:20:15;;;;;;;49.85;21.02;;;;;;;-2.42;71.17;101667.11;1658173;86;25416;-77
2022/02/13 00:22:42;;;;;;;50.58;19.98;;;;;;;-2.40;71.10;101665.08;1658385;86;25755;-77
2022/02/13 00:25:10;;;;;;;48.65;19.02;;;;;;;-2.40;71.07;101669.05;1657589;86;25635;-76
2022/02/13 00:27:37;;;;;;;49.48;19.27;;;;;;;-2.41;70.94;101670.08;1658172;86;25478;-77
2022/02/13 00:30:07;;;;;;;49.93;21.48;;;;;;;-2.41;71.01;101664.78;1657904;86;28119;-77
2022/02/13 00:32:33;;;;;;;48.55;19.92;;;;;;;-2.42;70.79;101666.59;1658097;86;25646;-75
2022/02/13 00:35:00;;;;;;;44.75;20.32;;;;;;;-2.46;70.86;101651.58;1658100;86;25674;-77
2022/02/13 00:37:27;;;;;;;49.88;20.45;;;;;;;-2.48;70.90;101653.59;1658057;86;25621;-76
2022/02/13 00:39:56;;;;;;;50.95;20.32;;;;;;;-2.48;71.00;101650.95;1658602;86;25192;-77
2022/02/13 00:42:26;;;;;;;45.85;19.05;;;;;;;-2.49;70.98;101644.52;1657260;86;25858;-77
2022/02/13 00:44:54;;;;;;;52.80;21.42;;;;;;;-2.50;70.93;101645.02;1659149;86;25481;-76
2022/02/13 00:47:20;;;;;;;46.95;20.85;;;;;;;-2.48;70.90;101646.16;1657949;86;25566;-76
2022/02/13 00:49:47;;;;;;;49.00;20.90;;;;;;;-2.52;70.92;101639.10;1657875;86;26314;-76
2022/02/13 00:52:15;;;;;;;54.50;20.82;;;;;;;-2.53;70.79;101638.77;1657943;86;25560;-76
2022/02/13 00:54:43;;;;;;;50.15;20.92;;;;;;;-2.52;70.81;101636.45;1658017;86;27394;-76
2022/02/13 00:57:11;;;;;;;43.45;19.57;;;;;;;-2.55;70.79;101627.55;1657992;86;25663;-76
2022/02/13 00:59:38;;;;;;;46.65;18.45;;;;;;;-2.56;70.79;101626.41;1657930;86;25645;-76
2022/02/13 01:02:05;;;;;;;40.63;18.52;;;;;;;-2.58;70.76;101614.67;1657887;86;26235;-77
2022/02/13 01:04:32;;;;;;;42.17;18.07;;;;;;;-2.58;70.75;101608.56;1657893;86;25226;-76
2022/02/13 01:07:01;;;;;;;42.03;17.52;;;;;;;-2.61;70.67;101599.66;1657929;86;27339;-76
2022/02/13 01:09:33;;;;;;;39.65;16.15;;;;;;;-2.64;70.73;101599.04;1654563;86;25859;-77
2022/02/13 01:12:08;;;;;;;41.85;17.82;;;;;;;-2.64;70.78;101600.37;1659717;86;25230;-77
2022/02/13 01:14:35;;;;;;;40.25;16.70;;;;;;;-2.63;70.75;101594.04;1654371;86;25632;-76
2022/02/13 01:17:01;;;;;;;43.20;18.45;;;;;;;-2.64;70.68;101591.09;1657854;86;25464;-75
2022/02/13 01:19:29;;;;;;;38.00;17.17;;;;;;;-2.67;70.86;101586.17;1657840;86;28074;-75
2022/02/13 01:22:00;;;;;;;36.80;16.02;;;;;;;-2.68;70.88;101581.05;1657763;86;25635;-76
2022/02/13 01:24:26;;;;;;;37.93;16.35;;;;;;;-2.70;70.80;101583.08;1657860;86;25576;-76
2022/02/13 01:26:53;;;;;;;35.15;16.32;;;;;;;-2.74;70.72;101572.05;1634798;86;25680;-76
2022/02/13 01:29:22;;;;;;;36.17;16.10;;;;;;;-2.77;70.96;101567.63;1657781;86;25522;-76
2022/02/13 01:31:49;;;;;;;36.83;17.27;;;;;;;-2.82;70.96;101559.73;1634853;86;27526;-77
2022/02/13 01:34:19;;;;;;;36.33;16.45;;;;;;;-2.84;71.01;101556.46;1657848;86;25642;-76
2022/02/13 01:36:47;;;;;;;36.65;14.53;;;;;;;-2.88;71.33;101552.56;1657888;86;25461;-76
2022/02/13 01:39:17;;;;;;;38.05;15.72;;;;;;;-2.90;71.42;101551.91;1657939;86;25652;-76
2022/02/13 01:41:49;;;;;;;34.55;14.58;;;;;;;-2.92;71.42;101544.66;1660054;86;25227;-77
2022/02/13 01:44:29;;;;;;;33.80;16.55;;;;;;;-2.94;71.53;101539.26;1635639;86;27556;-76
2022/02/13 01:46:56;;;;;;;35.03;15.60;;;;;;;-2.97;71.55;101537.79;1657901;86;25643;-76
2022/02/13 01:49:23;;;;;;;40.73;15.85;;;;;;;-2.98;71.91;101537.98;1657955;86;25659;-76
2022/02/13 01:51:50;;;;;;;35.20;14.63;;;;;;;-2.99;71.80;101524.44;1658041;86;26366;-75
2022/02/13 01:54:18;;;;;;;33.88;14.30;;;;;;;-3.01;71.77;101529.41;1658236;86;25223;-76
2022/02/13 01:56:47;;;;;;;35.40;14.53;;;;;;;-3.02;71.85;101525.11;1635139;86;27858;-76
2022/02/13 01:59:14;;;;;;;35.40;14.33;;;;;;;-3.05;72.09;101512.27;1657970;86;25624;-77
2022/02/13 02:01:42;;;;;;;32.00;13.95;;;;;;;-3.03;72.17;101520.84;1663698;86;25625;-76
2022/02/13 02:04:12;;;;;;;30.72;14.43;;;;;;;-3.05;72.09;101512.27;1665083;86;25585;-76
2022/02/13 02:06:38;;;;;;;;;;;;;;;-3.05;72.20;101509.62;1667722;86;25396;-76
2022/02/13 02:09:06;;;;;;;33.67;15.63;;;;;;;-3.04;72.03;101503.30;1665100;86;28041;-76
2022/02/13 02:11:39;;;;;;;35.63;15.50;;;;;;;-3.09;72.20;101499.08;1666903;86;25622;-76
2022/02/13 02:14:07;;;;;;;35.08;13.78;;;;;;;-3.10;72.38;101495.30;1667014;86;25370;-76
2022/02/13 02:16:35;;;;;;;37.30;13.88;;;;;;;-3.10;72.39;101489.52;1667204;86;25594;-78
2022/02/13 02:19:03;;;;;;;33.48;13.98;;;;;;;-3.10;72.36;101490.00;1665591;86;25508;-76
2022/02/13 02:21:31;;;;;;;30.85;13.90;;;;;;;-3.12;72.46;101479.59;1636276;86;27592;-77
2022/02/13 02:23:57;;;;;;;31.97;12.90;;;;;;;-3.10;72.58;101498.78;1664922;86;25421;-75
2022/02/13 02:26:23;;;;;;;32.33;12.95;;;;;;;-3.10;72.60;101490.84;1665083;86;25500;-75
2022/02/13 02:28:50;;;;;;;31.75;13.85;;;;;;;-3.10;72.39;101484.23;1664994;86;25636;-75
2022/02/13 02:31:16;;;;;;;36.33;15.65;;;;;;;-3.08;72.39;101483.52;1664957;86;25417;-75
2022/02/13 02:33:43;;;;;;;35.05;14.98;;;;;;;-3.07;72.43;101486.47;1665017;86;27351;-75
2022/02/13 02:36:20;;;;;;;37.20;15.28;;;;;;;-3.06;72.52;101478.86;1664881;86;25559;-76
2022/02/13 02:38:48;;;;;;;34.35;15.70;;;;;;;-3.07;72.47;101471.91;1665390;86;25431;-75
2022/02/13 02:41:20;;;;;;;28.32;13.95;;;;;;;-3.04;72.51;101479.99;1666144;86;25769;-74
2022/02/13 02:43:47;;;;;;;32.38;13.30;;;;;;;-3.04;72.38;101478.67;1666567;86;25614;-75
2022/02/13 02:46:19;;;;;;;31.25;14.10;;;;;;;-3.05;72.34;101479.19;1665387;86;25834;-74
2022/02/13 02:48:45;;;;;;;31.40;13.80;;;;;;;-3.05;72.30;101466.43;1665982;86;25568;-74
2022/02/13 02:51:13;;;;;;;32.85;14.13;;;;;;;-3.02;72.28;101475.32;1665546;86;25248;-74
2022/02/13 02:53:42;;;;;;;29.87;13.78;;;;;;;-2.99;72.20;101464.88;1665370;86;25823;-75
2022/02/13 02:56:10;;;;;;;31.33;14.18;;;;;;;-3.00;72.13;101464.03;1665628;86;25242;-74
2022/02/13 02:58:38;;;;;;;32.40;14.35;;;;;;;-2.98;72.04;101456.71;1642414;86;28791;-76
2022/02/13 03:01:06;;;;;;;29.75;14.38;;;;;;;-2.96;72.04;101452.55;1665396;86;25606;-75
2022/02/13 03:03:33;;;;;;;35.48;13.88;;;;;;;-2.94;71.99;101457.18;1665677;86;25585;-76
2022/02/13 03:06:01;;;;;;;32.53;14.18;;;;;;;-2.94;71.88;101451.37;1665350;86;25688;-76
2022/02/13 03:08:29;;;;;;;29.35;13.45;;;;;;;-2.93;71.85;101454.31;1665490;86;25431;-76
2022/02/13 03:11:17;;;;;;;30.92;14.60;;;;;;;-2.92;71.71;101447.21;1666588;86;27441;-76
2022/02/13 03:13:47;;;;;;;33.25;13.03;;;;;;;-2.93;71.67;101449.02;1601720;89;25434;-74
2022/02/13 03:16:13;;;;;;;30.48;13.40;;;;;;;-2.92;71.71;101451.99;1602228;89;25320;-75
2022/02/13 03:18:40;;;;;;;26.87;12.88;;;;;;;-2.90;71.61;101442.02;1601486;89;25731;-76
2022/02/13 03:21:06;;;;;;;31.82;12.82;;;;;;;-2.90;71.41;101438.56;1601218;89;25644;-76
2022/02/13 03:23:33;;;;;;;29.95;12.85;;;;;;;-2.88;71.41;101429.91;1601064;89;27442;-75
2022/02/13 03:25:59;;;;;;;30.80;13.22;;;;;;;-2.88;71.38;101429.91;1601923;89;25724;-75
2022/02/13 03:28:26;;;;;;;30.60;12.65;;;;;;;-2.88;71.21;101434.73;1602018;89;25295;-75
2022/02/13 03:30:52;;;;;;;27.70;13.25;;;;;;;-2.89;71.30;101425.13;1601911;89;25609;-75
2022/02/13 03:33:18;;;;;;;31.75;12.98;;;;;;;-2.86;71.17;101436.67;1602017;89;25361;-76
2022/02/13 03:35:47;;;;;;;27.10;12.43;;;;;;;-2.90;71.10;101426.13;1601997;89;28128;-76
2022/02/13 03:38:14;;;;;;;34.05;14.10;;;;;;;-2.88;71.16;101424.63;1601999;89;25353;-75
2022/02/13 03:40:51;;;;;;;30.23;13.18;;;;;;;-2.89;71.09;101419.03;1602625;89;25643;-76
2022/02/13 03:43:27;;;;;;;29.40;13.80;;;;;;;-2.90;71.04;101418.19;1554984;92;26465;-77
2022/02/13 03:45:55;;;;;;;29.85;12.93;;;;;;;-2.90;71.03;101414.73;1556639;92;25271;-76
2022/02/13 03:48:21;;;;;;;29.52;12.82;;;;;;;-2.93;71.03;101401.36;1526945;94;27357;-75
2022/02/13 03:50:48;;;;;;;29.40;12.47;;;;;;;-2.92;71.02;101396.90;1571219;89;25308;-74
2022/02/13 03:53:18;;;;;;;34.23;13.22;;;;;;;-2.93;70.99;101397.90;1605904;89;25653;-76
2022/02/13 03:55:47;;;;;;;30.40;12.90;;;;;;;-2.92;71.00;101399.55;1605765;89;25730;-76
2022/02/13 03:58:13;;;;;;;30.97;14.13;;;;;;;-2.93;70.98;101395.25;1605824;89;25708;-75
2022/02/13 04:00:41;;;;;;;31.50;12.80;;;;;;;-2.94;70.94;101389.66;1605517;89;27345;-75
2022/02/13 04:03:09;;;;;;;24.37;12.65;;;;;;;-2.94;71.01;101384.37;1605411;89;25790;-75
2022/02/13 04:05:36;;;;;;;27.65;13.28;;;;;;;-2.97;70.98;101378.12;1605622;89;25537;-76
2022/02/13 04:08:03;;;;;;;27.70;14.07;;;;;;;-2.97;70.96;101382.91;1605471;89;25726;-75
2022/02/13 04:10:32;;;;;;;26.45;13.40;;;;;;;-2.96;70.96;101375.30;1606261;89;25620;-78
2022/02/13 04:13:04;;;;;;;29.82;13.43;;;;;;;-2.95;70.95;101380.07;1606766;89;26009;-75
2022/02/13 04:15:30;;;;;;;27.77;12.65;;;;;;;-2.96;70.93;101369.99;1514985;94;25716;-77
2022/02/13 04:17:57;;;;;;;27.85;12.60;;;;;;;-2.96;70.93;101369.16;1502434;95;25751;-76
2022/02/13 04:20:23;;;;;;;27.90;13.15;;;;;;;-2.96;70.93;101361.22;1534270;91;25812;-75
2022/02/13 04:22:51;;;;;;;29.15;12.75;;;;;;;-2.96;70.91;101349.30;1558496;92;25304;-76
2022/02/13 04:25:18;;;;;;;27.22;13.35;;;;;;;-2.95;70.89;101360.22;1558607;92;27409;-76
2022/02/13 04:27:44;;;;;;;29.05;12.68;;;;;;;-2.97;70.87;101351.14;1558523;92;25283;-75
2022/02/13 04:30:11;;;;;;;30.85;13.38;;;;;;;-2.96;70.83;101345.33;1558540;92;25584;-76
2022/02/13 04:32:38;;;;;;;28.98;12.85;;;;;;;-2.97;70.79;101345.03;1558434;92;25729;-75
2022/02/13 04:35:05;;;;;;;32.38;13.93;;;;;;;-2.97;70.88;101349.81;1558574;92;25524;-75
2022/02/13 04:37:31;;;;;;;27.77;12.40;;;;;;;-2.99;70.89;101337.28;1558563;92;27357;-76
2022/02/13 04:40:08;;;;;;;30.80;12.25;;;;;;;-2.97;70.85;101330.47;1558993;92;25518;-77
2022/02/13 04:42:54;;;;;;;28.45;12.30;;;;;;;-2.94;70.79;101334.06;1515957;94;25401;-75
2022/02/13 04:45:23;;;;;;;29.35;12.28;;;;;;;-2.93;70.80;101333.84;1519798;90;25815;-75
2022/02/13 04:47:49;;;;;;;26.17;12.53;;;;;;;-2.93;70.80;101340.98;1583126;90;25711;-74
2022/02/13 04:50:21;;;;;;;29.15;12.98;;;;;;;-2.91;70.80;101334.97;1583053;90;27338;-75
2022/02/13 04:52:44;;;;;;;26.50;12.63;;;;;;;-2.94;70.79;101332.22;1583129;90;25787;-75
2022/02/13 04:55:11;;;;;;;34.08;12.85;;;;;;;-2.93;70.82;101341.78;1582957;90;25648;-75
2022/02/13 04:57:37;;;;;;;31.10;12.25;;;;;;;-2.94;70.69;101338.84;1583002;90;25623;-76
2022/02/13 05:00:06;;;;;;;32.78;13.35;;;;;;;-2.94;70.79;101334.87;1583029;90;25673;-76
2022/02/13 05:02:35;;;;;;;32.13;13.62;;;;;;;-2.97;70.80;101337.09;1583062;90;27394;-76
2022/02/13 05:05:04;;;;;;;20.55;10.63;;;;;;;-2.94;70.82;101332.73;1582948;90;25749;-76
2022/02/13 05:07:30;;;;;;;25.65;12.25;;;;;;;-2.96;70.79;101327.64;1583130;90;25640;-76
2022/02/13 05:10:02;;;;;;;33.05;12.90;;;;;;;-2.96;70.95;101325.47;1583308;90;25679;-77
2022/02/13 05:12:30;;;;;;;26.25;12.33;;;;;;;-2.96;70.89;101314.87;1582084;90;25279;-79
2022/02/13 05:14:57;;;;;;;30.37;11.18;;;;;;;-2.96;70.90;101313.08;1584239;90;27338;-75
2022/02/13 05:17:26;;;;;;;24.02;11.90;;;;;;;-2.97;70.89;101307.97;1583385;90;25798;-76
2022/02/13 05:19:52;;;;;;;27.17;11.38;;;;;;;-2.96;70.96;101305.13;1619986;86;25451;-75
2022/02/13 05:22:19;;;;;;;25.55;11.20;;;;;;;-2.96;70.92;101305.61;1664899;86;25635;-74
2022/02/13 05:24:47;;;;;;;27.10;11.83;;;;;;;-2.96;70.91;101309.59;1664901;86;25687;-75
2022/02/13 05:27:16;;;;;;;25.82;11.78;;;;;;;-2.95;70.94;101311.23;1664969;86;27318;-76
2022/02/13 05:29:42;;;;;;;27.85;12.20;;;;;;;-2.95;70.85;101300.12;1664835;86;25562;-75
2022/02/13 05:32:11;;;;;;;28.50;12.13;;;;;;;-2.96;70.79;101294.54;1664956;86;25402;-75
2022/02/13 05:34:37;;;;;;;28.32;11.95;;;;;;;-2.96;70.78;101304.30;1664996;86;26180;-75
2022/02/13 05:37:05;;;;;;;29.42;11.80;;;;;;;-2.96;70.88;101296.34;1664957;86;25677;-76
2022/02/13 05:39:43;;;;;;;29.05;12.75;;;;;;;-2.95;70.81;101301.97;1664981;86;27921;-75
2022/02/13 05:42:24;;;;;;;29.87;12.47;;;;;;;-2.94;70.85;101304.94;1506864;95;25690;-75
2022/02/13 05:44:54;;;;;;;26.02;11.20;;;;;;;-2.92;70.85;101298.42;1465609;97;25532;-74
2022/02/13 05:47:22;;;;;;;25.88;11.80;;;;;;;-2.91;70.93;101284.67;1466280;97;25698;-75
2022/02/13 05:49:48;;;;;;;22.27;11.95;;;;;;;-2.90;70.75;101289.77;1466165;97;25626;-75
2022/02/13 05:52:14;;;;;;;22.48;12.18;;;;;;;-2.88;70.73;101291.74;1466114;97;27080;-75
2022/02/13 05:54:43;;;;;;;25.40;12.37;;;;;;;-2.85;70.69;101287.87;1465959;97;25542;-75
2022/02/13 05:57:09;;;;;;;28.90;11.55;;;;;;;-2.83;70.64;101289.81;1448452;97;25603;-75
2022/02/13 05:59:35;;;;;;;28.65;12.50;;;;;;;-2.81;70.49;101289.10;1466005;97;26013;-75
2022/02/13 06:02:03;;;;;;;24.07;11.55;;;;;;;-2.79;70.44;101284.45;1444957;98;25551;-75
2022/02/13 06:04:29;;;;;;;23.18;11.48;;;;;;;-2.77;70.36;101283.74;1458806;98;27310;-75
2022/02/13 06:06:57;;;;;;;23.70;10.15;;;;;;;-2.73;70.29;101287.63;1458749;98;25734;-75
2022/02/13 06:09:43;;;;;;;27.27;11.70;;;;;;;-2.72;70.07;101287.95;1417745;101;25672;-75
2022/02/13 06:12:13;;;;;;;22.95;11.18;;;;;;;-2.68;70.00;101291.02;1398487;102;25656;-75
2022/02/13 06:14:41;;;;;;;26.95;11.33;;;;;;;-2.65;69.96;101282.16;1397668;102;25816;-74
2022/02/13 06:17:07;;;;;;;29.35;12.28;;;;;;;-2.65;69.98;101282.68;1397668;102;28106;-75
2022/02/13 06:19:34;;;;;;;26.07;11.43;;;;;;;-2.63;69.94;101276.67;1397575;102;25596;-75
2022/02/13 06:22:02;;;;;;;22.02;11.15;;;;;;;-2.61;69.84;101275.16;1389346;103;25687;-75
2022/02/13 06:24:29;;;;;;;29.55;11.33;;;;;;;-2.60;69.78;101276.28;1385278;103;25633;-75
2022/02/13 06:26:55;;;;;;;28.07;13.05;;;;;;;-2.57;69.71;101271.09;1390062;103;25539;-75
2022/02/13 06:29:22;;;;;;;23.07;11.65;;;;;;;-2.51;69.58;101268.98;1390738;102;27405;-75
2022/02/13 06:31:49;;;;;;;28.00;12.85;;;;;;;-2.49;69.46;101280.19;1395437;101;25678;-76
2022/02/13 06:34:16;;;;;;;27.05;12.78;;;;;;;-2.45;69.56;101274.30;1402640;101;25712;-75
2022/02/13 06:36:42;;;;;;;38.63;13.70;;;;;;;-2.42;69.57;101270.95;1419082;101;25861;-76
2022/02/13 06:39:09;;;;;;;30.15;13.50;;;;;;;-2.39;69.42;101274.53;1419127;101;25725;-75
2022/02/13 06:41:45;;;;;;;29.48;13.08;;;;;;;-2.40;69.39;101272.39;1437461;99;27384;-76
2022/02/13 06:44:13;;;;;;;28.00;13.48;;;;;;;-2.39;69.43;101259.44;1436120;99;25739;-75
2022/02/13 06:46:42;;;;;;;30.12;12.68;;;;;;;-2.39;69.30;101271.36;1436277;99;25702;-76
2022/02/13 06:49:08;;;;;;;29.87;12.78;;;;;;;-2.37;69.44;101265.34;1518769;86;25645;-75
2022/02/13 06:51:34;;;;;;;31.35;13.48;;;;;;;-2.35;69.38;101267.80;1662870;86;25499;-74
2022/02/13 06:54:01;;;;;;;30.72;13.35;;;;;;;-2.32;69.21;101273.52;1662768;86;27443;-75
2022/02/13 06:56:27;;;;;;;26.52;13.22;;;;;;;-2.28;69.39;101272.13;1662766;86;25431;-74
2022/02/13 06:58:54;;;;;;;29.70;13.68;;;;;;;-2.23;69.03;101266.72;1662766;86;25644;-75
2022/02/13 07:01:21;;;;;;;31.90;14.83;;;;;;;-2.11;69.54;101269.92;1662464;86;26359;-75
2022/02/13 07:03:49;;;;;;;27.30;13.35;;;;;;;-1.92;69.78;101260.36;1664913;86;25691;-75
2022/02/13 07:06:15;;;;;;;36.00;14.53;;;;;;;-1.76;69.15;101264.45;1665032;86;27342;-75
2022/02/13 07:08:42;;;;;;;31.37;12.93;;;;;;;-1.60;68.90;101263.73;1664932;86;25621;-75
2022/02/13 07:11:22;;;;;;;27.37;14.35;;;;;;;-1.46;68.70;101261.41;1666788;86;25490;-76
2022/02/13 07:13:48;;;;;;;26.57;13.72;;;;;;;-1.29;68.44;101255.16;1662109;86;26232;-74
2022/02/13 07:16:15;;;;;;;29.50;14.47;;;;;;;-1.12;67.81;101254.22;1665002;86;25237;-75
2022/02/13 07:18:42;;;;;;;32.30;14.10;;;;;;;-0.92;68.23;101252.81;1636385;86;27344;-74
2022/02/13 07:21:08;;;;;;;29.57;14.05;;;;;;;-0.72;68.32;101251.42;1664866;86;25493;-74
2022/02/13 07:23:36;;;;;;;30.27;14.63;;;;;;;-0.46;67.57;101258.98;1664896;86;25547;-74
2022/02/13 07:26:03;;;;;;;36.90;15.15;;;;;;;-0.28;67.20;101254.30;1664639;86;25604;-75
2022/02/13 07:31:14;;;;;;;33.40;15.80;;;;;;;-0.01;65.55;101245.66;1664661;86;27399;-75
2022/02/13 07:33:41;;;;;;;37.42;15.55;;;;;;;0.21;65.37;101251.95;1664558;86;25618;-75
2022/02/13 07:36:08;;;;;;;31.75;15.25;;;;;;;0.34;65.34;101236.70;1664610;86;25489;-76
2022/02/13 07:38:35;;;;;;;32.98;14.85;;;;;;;0.65;65.63;101246.16;1664675;86;25622;-76
2022/02/13 07:41:01;;;;;;;29.55;14.10;;;;;;;0.89;65.21;101229.31;1666695;86;25278;-74
2022/02/13 07:43:28;;;;;;;29.87;15.45;;;;;;;1.14;64.67;101223.61;1664684;86;27350;-76
2022/02/13 07:45:55;;;;;;;30.57;15.38;;;;;;;1.41;62.46;101238.76;1664646;86;25684;-76
2022/02/13 07:48:21;;;;;;;31.42;15.83;;;;;;;1.65;62.67;101229.84;1664703;86;25549;-76
2022/02/13 07:50:48;;;;;;;32.48;16.35;;;;;;;1.82;63.06;101223.34;1664712;86;25645;-76
2022/02/13 07:53:15;;;;;;;31.23;15.25;;;;;;;2.05;61.92;101223.90;1664746;86;25584;-77
2022/02/13 07:55:42;;;;;;;29.42;14.68;;;;;;;2.32;61.99;101227.49;1664620;86;27063;-76
2022/02/13 07:58:09;;;;;;;31.20;15.18;;;;;;;2.76;60.66;101218.61;1664554;86;25744;-76
2022/02/13 08:00:36;;;;;;;31.30;15.05;;;;;;;3.21;59.21;101218.46;1664615;86;25431;-76
2022/02/13 08:03:03;;;;;;;28.87;14.58;;;;;;;3.60;60.16;101211.19;1637484;86;25756;-77
2022/02/13 08:05:29;;;;;;;30.88;15.60;;;;;;;3.95;59.72;101209.67;1664739;86;25455;-77
2022/02/13 08:07:56;;;;;;;28.15;15.40;;;;;;;4.15;58.24;101211.05;1664476;85;27972;-76
2022/02/13 08:10:34;;;;;;;29.63;15.70;;;;;;;4.19;58.41;101206.30;1665913;86;25302;-80
2022/02/13 08:13:02;;;;;;;28.15;15.32;;;;;;;4.29;58.03;101201.61;1528505;93;25560;-77
2022/02/13 08:15:29;;;;;;;31.40;16.00;;;;;;;4.43;57.67;101202.12;1527967;93;25813;-77
2022/02/13 08:17:55;;;;;;;31.17;16.37;;;;;;;4.54;56.05;101207.09;1528001;93;25614;-77
2022/02/13 08:20:21;;;;;;;37.58;16.97;;;;;;;4.37;55.51;101208.44;1528046;93;27584;-77
2022/02/13 08:22:47;;;;;;;28.10;15.95;;;;;;;4.29;55.36;101209.66;1527927;93;25555;-77
2022/02/13 08:25:14;;;;;;;30.75;16.37;;;;;;;4.30;55.90;101201.91;1527877;93;25656;-75
2022/02/13 08:27:40;;;;;;;31.30;15.65;;;;;;;4.40;55.94;101192.69;1527881;93;26326;-76
2022/02/13 08:30:08;;;;;;;30.45;16.17;;;;;;;4.59;53.87;101191.08;1508822;93;25538;-76
2022/02/13 08:32:34;;;;;;;32.58;15.90;;;;;;;4.58;55.19;101188.94;1527862;93;27579;-76
2022/02/13 08:35:01;;;;;;;28.27;14.45;;;;;;;4.80;55.55;101193.50;1527891;93;25708;-76
2022/02/13 08:37:27;;;;;;;30.00;15.83;;;;;;;5.00;54.53;101198.32;1527766;93;25848;-77
2022/02/13 08:39:57;;;;;;;30.32;15.18;;;;;;;4.98;54.02;101174.97;1529100;93;26437;-76
2022/02/13 08:42:26;;;;;;;27.55;14.83;;;;;;;5.32;54.43;101170.27;1527270;93;25737;-77
2022/02/13 08:44:52;;;;;;;25.68;14.23;;;;;;;5.69;52.96;101172.78;1527978;93;27331;-76
2022/02/13 08:47:19;;;;;;;29.02;14.75;;;;;;;5.70;52.08;101163.11;1527895;93;25690;-77
2022/02/13 08:49:47;;;;;;;28.12;14.53;;;;;;;5.74;52.97;101162.09;1553151;86;25884;-76
2022/02/13 08:52:14;;;;;;;29.23;14.25;;;;;;;5.97;52.50;101163.10;1664572;86;25728;-76
2022/02/13 08:54:40;;;;;;;25.15;13.83;;;;;;;6.26;52.03;101166.80;1664607;86;25618;-77
2022/02/13 08:57:07;;;;;;;29.82;14.47;;;;;;;6.44;51.36;101172.85;1664642;86;27922;-76
2022/02/13 08:59:33;;;;;;;27.48;13.78;;;;;;;6.33;49.54;101164.73;1664514;86;25634;-75
2022/02/13 09:01:59;;;;;;;24.95;13.32;;;;;;;6.45;48.28;101162.36;1664692;86;25467;-77
2022/02/13 09:04:25;;;;;;;25.00;13.22;;;;;;;6.50;50.63;101164.56;1657447;84;25664;-77
2022/02/13 09:06:54;;;;;;;26.73;13.95;;;;;;;6.60;49.88;101148.20;1679168;84;25726;-77
2022/02/13 09:09:28;;;;;;;24.00;13.65;;;;;;;6.83;49.19;101145.09;1670670;84;27458;-78
2022/02/13 09:11:58;;;;;;;27.70;13.50;;;;;;;6.96;49.26;101155.08;1666529;84;25457;-77
2022/02/13 09:14:25;;;;;;;25.88;13.93;;;;;;;7.05;48.31;101141.41;1668050;85;25533;-79
2022/02/13 09:16:52;;;;;;;24.25;13.22;;;;;;;7.18;50.71;101142.23;1667981;86;25783;-78
2022/02/13 09:19:29;;;;;;;24.60;13.55;;;;;;;7.84;51.00;101143.41;1668382;86;25309;-79
2022/02/13 09:21:53;;;;;;;24.92;13.40;;;;;;;8.17;48.41;101145.27;1667634;86;27360;-78
2022/02/13 09:24:21;;;;;;;24.50;13.68;;;;;;;8.36;45.87;101153.58;1668327;86;25804;-77
2022/02/13 09:26:50;;;;;;;21.33;12.63;;;;;;;8.02;45.67;101143.41;1668523;86;25521;-76
2022/02/13 09:29:16;;;;;;;22.50;13.00;;;;;;;7.95;45.37;101142.86;1664935;86;25662;-78
2022/02/13 09:31:42;;;;;;;24.50;13.28;;;;;;;7.94;45.47;101133.17;1668687;86;25842;-77
2022/02/13 09:34:12;;;;;;;27.30;12.50;;;;;;;7.95;45.15;101147.73;1668639;86;27340;-78
2022/02/13 09:36:38;;;;;;;28.85;14.35;;;;;;;7.98;45.61;101128.84;1668536;85;25523;-76
2022/02/13 09:39:04;;;;;;;24.10;13.60;;;;;;;8.22;47.47;101116.44;1668381;86;25651;-76
2022/02/13 09:41:30;;;;;;;22.73;12.88;;;;;;;8.46;46.38;101113.14;1670608;86;25587;-77
2022/02/13 09:43:56;;;;;;;21.65;12.25;;;;;;;8.56;45.50;101102.88;1668495;86;25719;-76
2022/02/13 09:46:24;;;;;;;20.75;11.88;;;;;;;8.86;45.18;101118.68;1645693;86;27318;-77
2022/02/13 09:48:55;;;;;;;24.82;11.97;;;;;;;8.87;44.02;101111.66;1668638;86;25748;-78
2022/02/13 09:51:31;;;;;;;21.65;10.93;;;;;;;8.81;42.80;101091.17;1643008;85;25503;-76
2022/02/13 09:54:02;;;;;;;17.62;10.93;;;;;;;8.97;43.56;101075.70;1668711;85;26286;-77
2022/02/13 09:56:30;;;;;;;20.82;11.80;;;;;;;9.39;43.07;101077.61;1668300;86;25297;-77
2022/02/13 09:59:02;;;;;;;25.88;12.28;;;;;;;9.93;43.40;101067.67;1668910;85;27445;-75
2022/02/13 10:01:39;;;;;;;25.77;13.40;;;;;;;10.40;41.89;101059.36;1668322;85;25741;-76
2022/02/13 10:04:09;;;;;;;23.25;11.65;;;;;;;10.77;41.57;101051.05;1669182;85;25821;-77
2022/02/13 10:06:37;;;;;;;21.73;12.35;;;;;;;11.20;41.49;101055.85;1639009;87;26411;-76
2022/02/13 10:09:07;;;;;;;24.45;12.78;;;;;;;11.63;41.57;101046.77;1658945;86;25633;-76
2022/02/13 10:11:42;;;;;;;20.92;12.07;;;;;;;11.94;38.14;101054.37;1643335;87;27910;-77
2022/02/13 10:14:15;;;;;;;22.95;12.35;;;;;;;11.63;40.04;101045.94;1642470;87;25560;-75
2022/02/13 10:16:49;;;;;;;25.17;12.50;;;;;;;11.28;39.39;101038.12;1641561;87;25656;-76
2022/02/13 10:19:19;;;;;;;18.77;11.53;;;;;;;11.02;38.58;101022.27;1641448;87;26161;-75
2022/02/13 10:21:58;;;;;;;20.97;11.38;;;;;;;10.74;38.45;101017.80;1641749;87;25527;-76
2022/02/13 10:24:36;;;;;;;21.30;12.70;;;;;;;10.37;37.55;101012.61;1641509;87;27391;-75
2022/02/13 10:27:16;;;;;;;21.57;12.58;;;;;;;9.77;38.55;101011.08;1641250;87;25662;-77
2022/02/13 10:29:45;;;;;;;25.15;13.55;;;;;;;9.26;39.06;101016.95;1641812;87;25757;-76
2022/02/13 10:32:25;;;;;;;20.72;11.38;;;;;;;8.92;41.19;101008.28;1611932;87;25667;-77
2022/02/13 10:35:09;;;;;;;23.15;12.00;;;;;;;8.92;40.99;101011.80;1641767;87;25660;-77
2022/02/13 10:37:51;;;;;;;24.20;11.97;;;;;;;9.27;39.09;101008.57;1641476;87;27404;-77
2022/02/13 10:40:26;;;;;;;26.25;11.28;;;;;;;9.64;40.22;101015.83;1642530;87;25553;-77
2022/02/13 10:43:12;;;;;;;21.42;10.85;;;;;;;9.93;39.20;100987.42;1622237;88;25258;-76
2022/02/13 10:45:41;;;;;;;19.73;11.33;;;;;;;9.99;41.05;100998.97;1621441;88;25675;-78
2022/02/13 10:48:11;;;;;;;20.17;10.82;;;;;;;9.52;40.28;100985.15;1640157;86;25609;-77
2022/02/13 10:50:41;;;;;;;17.35;10.50;;;;;;;9.27;41.88;100985.63;1651698;86;28219;-78
2022/02/13 10:53:10;;;;;;;18.82;10.65;;;;;;;9.13;41.07;100971.17;1652589;86;25818;-78
2022/02/13 10:55:37;;;;;;;;;;;;;;;9.03;42.63;100971.26;1654413;86;25527;-78
2022/02/13 10:58:05;;;;;;;17.35;9.63;;;;;;;9.12;41.62;100969.00;1629553;86;25833;-80
2022/02/13 11:00:32;;;;;;;16.80;9.30;;;;;;;8.85;40.99;100956.54;1651824;86;25653;-79
2022/02/13 11:03:06;;;;;;;13.22;8.08;;;;;;;8.74;39.20;100959.31;1651773;86;27101;-77
2022/02/13 11:05:38;;;;;;;14.80;8.88;;;;;;;8.61;41.13;100958.58;1651624;86;25441;-77
2022/02/13 11:08:11;;;;;;;13.70;8.30;;;;;;;8.50;40.46;100949.75;1651853;86;25509;-78
2022/02/13 11:10:55;;;;;;;13.00;7.62;;;;;;;8.29;38.81;100942.83;1653434;84;25630;-78
2022/02/13 11:13:33;;;;;;;12.45;7.25;;;;;;;8.20;40.46;100947.98;1594696;89;25575;-79
2022/02/13 11:16:00;;;;;;;10.53;6.67;;;;;;;8.31;42.26;100952.78;1595201;89;28002;-77
2022/02/13 11:18:31;;;;;;;10.78;7.30;;;;;;;8.53;40.95;100955.94;1595246;89;25687;-81
2022/02/13 11:21:00;;;;;;;13.05;7.25;;;;;;;8.59;41.49;100951.31;1554270;91;25713;-80